createdAt,value
2019-01-04T10:14:50.273Z,101917.16
2019-01-04T10:17:22.854Z,101907.77
2019-01-04T10:19:52.014Z,101905.82
2019-01-04T10:22:21.163Z,101909.33
2019-01-04T10:24:50.263Z,101906.66
2019-01-04T10:27:19.362Z,101904.02
2019-01-04T10:29:48.431Z,101900.87
2019-01-04T10:32:17.528Z,101901.23
2019-01-04T10:34:46.623Z,101889.59
2019-01-04T10:37:15.719Z,101870.94
2019-01-04T10:39:44.795Z,101868.97
2019-01-04T10:42:13.873Z,101859.20
2019-01-04T10:44:43.028Z,101856.66
2019-01-04T10:47:12.107Z,101860.52
2019-01-04T10:49:41.165Z,101859.67
2019-01-04T10:52:10.233Z,101860.98
2019-01-04T10:54:39.340Z,101860.20
2019-01-04T10:57:08.396Z,101854.05
2019-01-04T10:59:37.514Z,101852.19
2019-01-04T11:02:06.534Z,101849.51
2019-01-04T11:04:35.533Z,101852.88
2019-01-04T11:07:04.516Z,101849.88
2019-01-04T11:09:33.566Z,101851.18
2019-01-04T11:12:02.516Z,101848.97
2019-01-04T11:14:31.579Z,101851.02
2019-01-04T11:17:00.647Z,101833.13
2019-01-04T11:19:29.811Z,101830.08
2019-01-04T11:22:34.431Z,101828.84
2019-01-04T11:25:42.951Z,101833.63
2019-01-04T11:28:18.429Z,101832.39
2019-01-04T11:31:24.455Z,101822.52
2019-01-04T11:34:00.321Z,101825.36
2019-01-04T11:37:05.767Z,101824.05
2019-01-04T11:40:11.957Z,101823.98
2019-01-04T11:43:06.393Z,101824.52
2019-01-04T11:46:10.816Z,101816.97
2019-01-04T11:48:59.786Z,101811.69
2019-01-04T11:51:55.424Z,101794.13
2019-01-04T11:54:29.516Z,101804.00
2019-01-04T11:56:58.644Z,101811.29
2019-01-04T11:59:27.860Z,101803.91
2019-01-04T12:01:56.957Z,101800.45
2019-01-04T12:04:26.129Z,101790.55
2019-01-04T12:06:56.819Z,101782.73
2019-01-04T12:09:25.998Z,101776.61
2019-01-04T12:11:55.239Z,101770.70
2019-01-04T12:14:24.647Z,101772.84
2019-01-04T12:16:53.949Z,101767.89
2019-01-04T12:19:23.108Z,101759.17
2019-01-04T12:21:52.212Z,101762.25
2019-01-04T12:24:22.330Z,101758.94
2019-01-04T12:26:51.593Z,101765.89
2019-01-04T12:29:20.695Z,101771.94
2019-01-04T12:31:49.834Z,101769.44
2019-01-04T12:34:18.914Z,101779.77
2019-01-04T12:36:48.098Z,101786.95
2019-01-04T12:39:17.197Z,101783.51
2019-01-04T12:41:46.284Z,101782.61
2019-01-04T12:44:15.349Z,101779.97
2019-01-04T12:46:44.409Z,101768.73
2019-01-04T12:49:13.456Z,101768.97
2019-01-04T12:51:42.528Z,101760.55
2019-01-04T12:54:11.785Z,101761.88
2019-01-04T12:56:40.894Z,101758.63
2019-01-04T12:59:10.004Z,101755.34
2019-01-04T13:01:39.209Z,101744.23
2019-01-04T13:04:08.368Z,101739.67
2019-01-04T13:06:37.442Z,101742.78
2019-01-04T13:09:07.333Z,101744.55
2019-01-04T13:11:36.372Z,101741.14
2019-01-04T13:14:05.445Z,101742.04
2019-01-04T13:16:34.566Z,101744.12
2019-01-04T13:19:03.628Z,101751.11
2019-01-04T13:21:32.654Z,101746.63
2019-01-04T13:24:01.710Z,101738.28
2019-01-04T13:26:30.853Z,101731.69
2019-01-04T13:28:59.939Z,101732.03
2019-01-04T13:31:29.001Z,101733.64
2019-01-04T13:33:58.132Z,101722.28
2019-01-04T13:36:27.191Z,101719.91
2019-01-04T13:38:56.245Z,101719.91
2019-01-04T13:41:25.305Z,101716.06
2019-01-04T13:43:54.405Z,101712.03
2019-01-04T13:46:23.457Z,101704.67
2019-01-04T13:48:52.544Z,101700.30
2019-01-04T13:51:21.643Z,101707.28
2019-01-04T13:53:50.736Z,101695.55
2019-01-04T13:56:19.881Z,101692.13
2019-01-04T13:58:49.130Z,101701.26
2019-01-04T14:01:18.158Z,101695.88
2019-01-04T14:03:47.314Z,101706.09
2019-01-04T14:06:16.395Z,101702.08
2019-01-04T14:08:45.561Z,101705.86
2019-01-04T14:11:14.631Z,101703.63
2019-01-04T14:13:43.789Z,101704.37
2019-01-04T14:16:12.872Z,101706.81
2019-01-04T14:18:41.935Z,101704.50
2019-01-04T14:21:11.087Z,101704.07
2019-01-04T14:23:40.272Z,101707.64
2019-01-04T14:26:09.395Z,101711.02
2019-01-04T14:28:38.520Z,101702.67
2019-01-04T14:31:07.776Z,101706.95
2019-01-04T14:33:36.782Z,101697.69
2019-01-04T14:36:06.981Z,101694.75
2019-01-04T14:38:36.107Z,101691.70
2019-01-04T14:41:05.203Z,101707.05
2019-01-04T14:43:34.332Z,101676.70
2019-01-04T14:46:03.466Z,101682.38
2019-01-04T14:48:32.382Z,101675.00
2019-01-04T14:51:01.478Z,101678.38
2019-01-04T14:53:30.718Z,101670.55
2019-01-04T14:55:59.855Z,101663.51
2019-01-04T14:58:29.036Z,101662.88
2019-01-04T15:00:58.183Z,101654.13
2019-01-04T15:03:27.192Z,101665.32
2019-01-04T15:05:56.248Z,101669.53
2019-01-04T15:08:25.406Z,101673.87
2019-01-04T15:10:54.509Z,101678.19
2019-01-04T15:13:23.588Z,101684.30
2019-01-04T15:15:52.705Z,101678.15
2019-01-04T15:18:21.723Z,101676.41
2019-01-04T15:20:50.971Z,101692.05
2019-01-04T15:23:20.039Z,101702.53
2019-01-04T15:25:49.407Z,101703.41
2019-01-04T15:28:18.539Z,101702.07
2019-01-04T15:30:47.583Z,101702.94
2019-01-04T15:33:16.701Z,101703.41
2019-01-04T15:35:46.663Z,101703.94
2019-01-04T15:38:16.567Z,101693.58
2019-01-04T15:40:45.702Z,101693.58
2019-01-04T15:43:14.835Z,101686.17
2019-01-04T15:45:43.919Z,101677.02
2019-01-04T15:48:12.957Z,101662.25
2019-01-04T15:50:42.016Z,101667.45
2019-01-04T15:53:11.076Z,101666.92
2019-01-04T15:55:40.160Z,101666.83
2019-01-04T15:58:09.194Z,101663.31
2019-01-04T16:00:38.289Z,101660.25
2019-01-04T16:03:07.303Z,101654.06
2019-01-04T16:05:36.628Z,101641.75
2019-01-04T16:08:05.810Z,101658.21
2019-01-04T16:10:34.832Z,101666.92
2019-01-04T16:13:04.051Z,101670.94
2019-01-04T16:15:33.109Z,101675.55
2019-01-04T16:18:02.280Z,101677.28
2019-01-04T16:20:31.347Z,101680.42
